sensor_id;sensor_type;location;lat;lon;timestamp;temperature;humidity
7576;DHT22;3829;50.798;4.358;2023-04-29T00:00:47;11.70;99.90
7576;DHT22;3829;50.798;4.358;2023-04-29T00:03:13;11.70;99.90
7576;DHT22;3829;50.798;4.358;2023-04-29T00:05:39;11.60;99.90
7576;DHT22;3829;50.798;4.358;2023-04-29T00:08:04;11.60;99.90
7576;DHT22;3829;50.798;4.358;2023-04-29T00:10:30;11.70;99.90
7576;DHT22;3829;50.798;4.358;2023-04-29T00:12:56;11.80;99.90
7576;DHT22;3829;50.798;4.358;2023-04-29T00:15:21;11.70;99.90
7576;DHT22;3829;50.798;4.358;2023-04-29T00:17:47;11.60;99.90
7576;DHT22;3829;50.798;4.358;2023-04-29T00:20:13;11.60;99.90
7576;DHT22;3829;50.798;4.358;2023-04-29T00:22:38;11.50;99.90
7576;DHT22;3829;50.798;4.358;2023-04-29T00:25:05;11.40;99.90
7576;DHT22;3829;50.798;4.358;2023-04-29T00:27:30;11.40;99.90
7576;DHT22;3829;50.798;4.358;2023-04-29T00:29:57;11.30;99.90
7576;DHT22;3829;50.798;4.358;2023-04-29T00:32:23;11.20;99.90
7576;DHT22;3829;50.798;4.358;2023-04-29T00:34:48;11.20;99.90
7576;DHT22;3829;50.798;4.358;2023-04-29T00:37:14;11.10;99.90
7576;DHT22;3829;50.798;4.358;2023-04-29T00:39:40;11.30;99.90
7576;DHT22;3829;50.798;4.358;2023-04-29T00:42:07;11.30;99.90
7576;DHT22;3829;50.798;4.358;2023-04-29T00:44:33;11.30;99.90
7576;DHT22;3829;50.798;4.358;2023-04-29T00:46:59;11.30;99.90
7576;DHT22;3829;50.798;4.358;2023-04-29T00:49:25;11.40;99.90
7576;DHT22;3829;50.798;4.358;2023-04-29T00:51:53;11.40;99.90
7576;DHT22;3829;50.798;4.358;2023-04-29T00:54:18;11.50;99.90
7576;DHT22;3829;50.798;4.358;2023-04-29T00:56:45;11.60;99.90
7576;DHT22;3829;50.798;4.358;2023-04-29T00:59:11;11.40;99.90
7576;DHT22;3829;50.798;4.358;2023-04-29T01:01:40;11.40;99.90
7576;DHT22;3829;50.798;4.358;2023-04-29T01:04:05;11.30;99.90
7576;DHT22;3829;50.798;4.358;2023-04-29T01:09:52;11.30;99.90
7576;DHT22;3829;50.798;4.358;2023-04-29T01:15:06;11.00;99.90
7576;DHT22;3829;50.798;4.358;2023-04-29T01:17:39;11.10;99.90
7576;DHT22;3829;50.798;4.358;2023-04-29T01:20:06;11.10;99.90
7576;DHT22;3829;50.798;4.358;2023-04-29T01:22:33;11.10;99.90
7576;DHT22;3829;50.798;4.358;2023-04-29T01:24:59;11.10;99.90
7576;DHT22;3829;50.798;4.358;2023-04-29T01:27:30;11.20;99.90
7576;DHT22;3829;50.798;4.358;2023-04-29T01:30:09;11.00;99.90
7576;DHT22;3829;50.798;4.358;2023-04-29T01:32:51;10.90;99.90
7576;DHT22;3829;50.798;4.358;2023-04-29T01:35:30;10.80;99.90
7576;DHT22;3829;50.798;4.358;2023-04-29T01:38:15;10.80;99.90
7576;DHT22;3829;50.798;4.358;2023-04-29T01:40:52;10.80;99.90
7576;DHT22;3829;50.798;4.358;2023-04-29T01:43:24;10.80;99.90
7576;DHT22;3829;50.798;4.358;2023-04-29T01:45:53;10.70;99.90
7576;DHT22;3829;50.798;4.358;2023-04-29T01:48:20;10.70;99.90
7576;DHT22;3829;50.798;4.358;2023-04-29T01:50:46;10.80;99.90
7576;DHT22;3829;50.798;4.358;2023-04-29T01:53:12;10.60;99.90
7576;DHT22;3829;50.798;4.358;2023-04-29T01:55:37;10.70;99.90
7576;DHT22;3829;50.798;4.358;2023-04-29T01:58:03;10.60;99.90
7576;DHT22;3829;50.798;4.358;2023-04-29T02:00:29;10.70;99.90
7576;DHT22;3829;50.798;4.358;2023-04-29T02:02:54;10.60;99.90
7576;DHT22;3829;50.798;4.358;2023-04-29T02:05:20;10.50;99.90
7576;DHT22;3829;50.798;4.358;2023-04-29T02:07:45;10.50;99.90
7576;DHT22;3829;50.798;4.358;2023-04-29T02:10:12;10.50;99.90
7576;DHT22;3829;50.798;4.358;2023-04-29T02:12:38;10.50;99.90
7576;DHT22;3829;50.798;4.358;2023-04-29T02:15:04;10.40;99.90
7576;DHT22;3829;50.798;4.358;2023-04-29T02:17:30;10.50;99.90
7576;DHT22;3829;50.798;4.358;2023-04-29T02:19:57;10.60;99.90
7576;DHT22;3829;50.798;4.358;2023-04-29T02:22:23;10.60;99.90
7576;DHT22;3829;50.798;4.358;2023-04-29T02:24:48;10.60;99.90
7576;DHT22;3829;50.798;4.358;2023-04-29T02:27:14;10.60;99.90
7576;DHT22;3829;50.798;4.358;2023-04-29T02:29:39;10.60;99.90
7576;DHT22;3829;50.798;4.358;2023-04-29T02:32:05;10.50;99.90
7576;DHT22;3829;50.798;4.358;2023-04-29T02:34:31;10.50;99.90
7576;DHT22;3829;50.798;4.358;2023-04-29T02:36:56;10.50;99.90
7576;DHT22;3829;50.798;4.358;2023-04-29T02:39:22;10.60;99.90
7576;DHT22;3829;50.798;4.358;2023-04-29T02:41:49;10.50;99.90
7576;DHT22;3829;50.798;4.358;2023-04-29T02:44:14;10.50;99.90
7576;DHT22;3829;50.798;4.358;2023-04-29T02:46:40;10.40;99.90
7576;DHT22;3829;50.798;4.358;2023-04-29T02:49:10;10.30;99.90
7576;DHT22;3829;50.798;4.358;2023-04-29T02:51:35;10.20;99.90
7576;DHT22;3829;50.798;4.358;2023-04-29T02:54:01;10.20;99.90
7576;DHT22;3829;50.798;4.358;2023-04-29T02:56:27;10.10;99.90
7576;DHT22;3829;50.798;4.358;2023-04-29T02:58:53;10.00;99.90
7576;DHT22;3829;50.798;4.358;2023-04-29T03:01:18;9.90;99.90
7576;DHT22;3829;50.798;4.358;2023-04-29T03:03:44;9.90;99.90
7576;DHT22;3829;50.798;4.358;2023-04-29T03:06:09;9.90;99.90
7576;DHT22;3829;50.798;4.358;2023-04-29T03:08:35;9.80;99.90
7576;DHT22;3829;50.798;4.358;2023-04-29T03:11:01;9.80;99.90
7576;DHT22;3829;50.798;4.358;2023-04-29T03:13:26;9.90;99.90
7576;DHT22;3829;50.798;4.358;2023-04-29T03:15:52;10.00;99.90
7576;DHT22;3829;50.798;4.358;2023-04-29T03:18:18;10.00;99.90
7576;DHT22;3829;50.798;4.358;2023-04-29T03:20:43;10.00;99.90
7576;DHT22;3829;50.798;4.358;2023-04-29T03:23:09;10.10;99.90
7576;DHT22;3829;50.798;4.358;2023-04-29T03:25:34;10.10;99.90
7576;DHT22;3829;50.798;4.358;2023-04-29T03:28:01;10.00;99.90
7576;DHT22;3829;50.798;4.358;2023-04-29T03:30:26;10.00;99.90
7576;DHT22;3829;50.798;4.358;2023-04-29T03:32:52;10.10;99.90
7576;DHT22;3829;50.798;4.358;2023-04-29T03:35:17;10.00;99.90
7576;DHT22;3829;50.798;4.358;2023-04-29T03:37:43;9.90;99.90
7576;DHT22;3829;50.798;4.358;2023-04-29T03:40:09;9.90;99.90
7576;DHT22;3829;50.798;4.358;2023-04-29T03:42:35;10.10;99.90
7576;DHT22;3829;50.798;4.358;2023-04-29T03:45:01;10.10;99.90
7576;DHT22;3829;50.798;4.358;2023-04-29T03:47:26;10.10;99.90
7576;DHT22;3829;50.798;4.358;2023-04-29T03:49:52;10.00;99.90
7576;DHT22;3829;50.798;4.358;2023-04-29T03:52:17;9.80;99.90
7576;DHT22;3829;50.798;4.358;2023-04-29T03:54:43;10.00;99.90
7576;DHT22;3829;50.798;4.358;2023-04-29T03:57:09;9.90;99.90
7576;DHT22;3829;50.798;4.358;2023-04-29T03:59:35;10.00;99.90
7576;DHT22;3829;50.798;4.358;2023-04-29T04:02:00;10.10;99.90
7576;DHT22;3829;50.798;4.358;2023-04-29T04:04:26;10.10;99.90
7576;DHT22;3829;50.798;4.358;2023-04-29T04:06:51;10.30;99.90
7576;DHT22;3829;50.798;4.358;2023-04-29T04:09:17;10.30;99.90
7576;DHT22;3829;50.798;4.358;2023-04-29T04:11:43;10.20;99.90
7576;DHT22;3829;50.798;4.358;2023-04-29T04:14:09;10.30;99.90
7576;DHT22;3829;50.798;4.358;2023-04-29T04:16:35;10.30;99.90
7576;DHT22;3829;50.798;4.358;2023-04-29T04:19:00;10.30;99.90
7576;DHT22;3829;50.798;4.358;2023-04-29T04:21:26;10.30;99.90
7576;DHT22;3829;50.798;4.358;2023-04-29T04:23:52;10.40;99.90
7576;DHT22;3829;50.798;4.358;2023-04-29T04:26:18;10.30;99.90
7576;DHT22;3829;50.798;4.358;2023-04-29T04:28:45;10.30;99.90
7576;DHT22;3829;50.798;4.358;2023-04-29T04:31:10;10.40;99.90
7576;DHT22;3829;50.798;4.358;2023-04-29T04:33:39;10.40;99.90
7576;DHT22;3829;50.798;4.358;2023-04-29T04:36:05;10.40;99.90
7576;DHT22;3829;50.798;4.358;2023-04-29T04:38:31;10.50;99.90
7576;DHT22;3829;50.798;4.358;2023-04-29T04:40:57;10.40;99.90
7576;DHT22;3829;50.798;4.358;2023-04-29T04:43:23;10.30;99.90
7576;DHT22;3829;50.798;4.358;2023-04-29T04:45:48;10.30;99.90
7576;DHT22;3829;50.798;4.358;2023-04-29T04:48:14;10.20;99.90
7576;DHT22;3829;50.798;4.358;2023-04-29T04:50:39;10.20;99.90
7576;DHT22;3829;50.798;4.358;2023-04-29T04:53:05;10.30;99.90
7576;DHT22;3829;50.798;4.358;2023-04-29T04:55:31;10.40;99.90
7576;DHT22;3829;50.798;4.358;2023-04-29T04:57:58;10.50;99.90
7576;DHT22;3829;50.798;4.358;2023-04-29T05:00:23;10.40;99.90
7576;DHT22;3829;50.798;4.358;2023-04-29T05:02:49;10.30;99.90
7576;DHT22;3829;50.798;4.358;2023-04-29T05:05:15;10.30;99.90
7576;DHT22;3829;50.798;4.358;2023-04-29T05:07:41;10.30;99.90
7576;DHT22;3829;50.798;4.358;2023-04-29T05:10:07;10.30;99.90
7576;DHT22;3829;50.798;4.358;2023-04-29T05:12:33;10.50;99.90
7576;DHT22;3829;50.798;4.358;2023-04-29T05:15:00;10.60;99.90
7576;DHT22;3829;50.798;4.358;2023-04-29T05:17:25;10.70;99.90
7576;DHT22;3829;50.798;4.358;2023-04-29T05:19:51;10.70;99.90
7576;DHT22;3829;50.798;4.358;2023-04-29T05:22:16;10.40;99.90
7576;DHT22;3829;50.798;4.358;2023-04-29T05:24:42;10.50;99.90
7576;DHT22;3829;50.798;4.358;2023-04-29T05:27:08;10.50;99.90
7576;DHT22;3829;50.798;4.358;2023-04-29T05:29:33;10.50;99.90
7576;DHT22;3829;50.798;4.358;2023-04-29T05:31:59;10.40;99.90
7576;DHT22;3829;50.798;4.358;2023-04-29T05:34:25;10.30;99.90
7576;DHT22;3829;50.798;4.358;2023-04-29T05:36:50;10.20;99.90
7576;DHT22;3829;50.798;4.358;2023-04-29T05:39:16;10.10;99.90
7576;DHT22;3829;50.798;4.358;2023-04-29T05:41:42;10.10;99.90
7576;DHT22;3829;50.798;4.358;2023-04-29T05:44:08;10.10;99.90
7576;DHT22;3829;50.798;4.358;2023-04-29T05:46:34;10.10;99.90
7576;DHT22;3829;50.798;4.358;2023-04-29T05:49:00;10.30;99.90
7576;DHT22;3829;50.798;4.358;2023-04-29T05:51:25;10.20;99.90
7576;DHT22;3829;50.798;4.358;2023-04-29T05:53:53;10.20;99.90
7576;DHT22;3829;50.798;4.358;2023-04-29T05:56:18;10.20;99.90
7576;DHT22;3829;50.798;4.358;2023-04-29T05:58:44;10.10;99.90
7576;DHT22;3829;50.798;4.358;2023-04-29T06:01:10;10.10;99.90
7576;DHT22;3829;50.798;4.358;2023-04-29T06:03:36;10.20;99.90
7576;DHT22;3829;50.798;4.358;2023-04-29T06:06:02;10.30;99.90
7576;DHT22;3829;50.798;4.358;2023-04-29T06:08:28;10.20;99.90
7576;DHT22;3829;50.798;4.358;2023-04-29T06:10:54;10.20;99.90
7576;DHT22;3829;50.798;4.358;2023-04-29T06:13:20;10.10;99.90
7576;DHT22;3829;50.798;4.358;2023-04-29T06:15:45;10.10;99.90
7576;DHT22;3829;50.798;4.358;2023-04-29T06:18:11;10.30;99.90
7576;DHT22;3829;50.798;4.358;2023-04-29T06:20:36;10.40;99.90
7576;DHT22;3829;50.798;4.358;2023-04-29T06:23:02;10.50;99.90
7576;DHT22;3829;50.798;4.358;2023-04-29T06:25:28;10.50;99.90
7576;DHT22;3829;50.798;4.358;2023-04-29T06:27:53;10.40;99.90
7576;DHT22;3829;50.798;4.358;2023-04-29T06:30:21;10.30;99.90
7576;DHT22;3829;50.798;4.358;2023-04-29T06:32:46;10.20;99.90
7576;DHT22;3829;50.798;4.358;2023-04-29T06:35:12;10.20;99.90
7576;DHT22;3829;50.798;4.358;2023-04-29T06:37:37;10.20;99.90
7576;DHT22;3829;50.798;4.358;2023-04-29T06:40:03;10.20;99.90
7576;DHT22;3829;50.798;4.358;2023-04-29T06:42:29;10.20;99.90
7576;DHT22;3829;50.798;4.358;2023-04-29T06:44:54;10.30;99.90
7576;DHT22;3829;50.798;4.358;2023-04-29T06:47:20;10.30;99.90
7576;DHT22;3829;50.798;4.358;2023-04-29T06:49:45;10.20;99.90
7576;DHT22;3829;50.798;4.358;2023-04-29T06:52:11;10.20;99.90
7576;DHT22;3829;50.798;4.358;2023-04-29T06:54:37;10.30;99.90
7576;DHT22;3829;50.798;4.358;2023-04-29T06:57:02;10.30;99.90
7576;DHT22;3829;50.798;4.358;2023-04-29T06:59:28;10.40;99.90
7576;DHT22;3829;50.798;4.358;2023-04-29T07:01:53;10.50;99.90
7576;DHT22;3829;50.798;4.358;2023-04-29T07:04:19;10.60;99.90
7576;DHT22;3829;50.798;4.358;2023-04-29T07:06:45;10.50;99.90
7576;DHT22;3829;50.798;4.358;2023-04-29T07:09:12;10.50;99.90
7576;DHT22;3829;50.798;4.358;2023-04-29T07:11:38;10.60;99.90
7576;DHT22;3829;50.798;4.358;2023-04-29T07:14:04;10.60;99.90
7576;DHT22;3829;50.798;4.358;2023-04-29T07:16:30;10.40;99.90
7576;DHT22;3829;50.798;4.358;2023-04-29T07:18:55;10.30;99.90
7576;DHT22;3829;50.798;4.358;2023-04-29T07:21:21;10.40;99.90
7576;DHT22;3829;50.798;4.358;2023-04-29T07:23:47;10.30;99.90
7576;DHT22;3829;50.798;4.358;2023-04-29T07:26:14;10.20;99.90
7576;DHT22;3829;50.798;4.358;2023-04-29T07:28:41;10.40;99.90
7576;DHT22;3829;50.798;4.358;2023-04-29T07:31:07;10.30;99.90
7576;DHT22;3829;50.798;4.358;2023-04-29T07:33:34;10.40;99.90
7576;DHT22;3829;50.798;4.358;2023-04-29T07:35:59;10.30;99.90
7576;DHT22;3829;50.798;4.358;2023-04-29T07:38:25;10.50;99.90
7576;DHT22;3829;50.798;4.358;2023-04-29T07:40:51;10.50;99.90
7576;DHT22;3829;50.798;4.358;2023-04-29T07:43:16;10.50;99.90
7576;DHT22;3829;50.798;4.358;2023-04-29T07:45:42;10.60;99.90
7576;DHT22;3829;50.798;4.358;2023-04-29T07:48:08;10.60;99.90
7576;DHT22;3829;50.798;4.358;2023-04-29T07:50:34;10.70;99.90
7576;DHT22;3829;50.798;4.358;2023-04-29T07:53:01;10.70;99.90
7576;DHT22;3829;50.798;4.358;2023-04-29T07:55:27;10.90;99.90
7576;DHT22;3829;50.798;4.358;2023-04-29T07:57:54;10.90;99.90
7576;DHT22;3829;50.798;4.358;2023-04-29T08:00:21;11.00;99.90
7576;DHT22;3829;50.798;4.358;2023-04-29T08:02:50;11.20;99.90
7576;DHT22;3829;50.798;4.358;2023-04-29T08:05:16;11.40;99.90
7576;DHT22;3829;50.798;4.358;2023-04-29T08:07:42;11.60;99.90
7576;DHT22;3829;50.798;4.358;2023-04-29T08:10:08;11.70;99.90
7576;DHT22;3829;50.798;4.358;2023-04-29T08:12:33;11.90;99.90
7576;DHT22;3829;50.798;4.358;2023-04-29T08:14:59;11.90;99.90
7576;DHT22;3829;50.798;4.358;2023-04-29T08:17:25;12.00;99.90
7576;DHT22;3829;50.798;4.358;2023-04-29T08:19:50;11.90;99.90
7576;DHT22;3829;50.798;4.358;2023-04-29T08:22:16;11.90;99.90
7576;DHT22;3829;50.798;4.358;2023-04-29T08:24:41;11.90;99.90
7576;DHT22;3829;50.798;4.358;2023-04-29T08:27:07;12.10;99.90
7576;DHT22;3829;50.798;4.358;2023-04-29T08:29:33;12.10;99.90
7576;DHT22;3829;50.798;4.358;2023-04-29T08:31:59;12.30;99.90
7576;DHT22;3829;50.798;4.358;2023-04-29T08:34:25;12.50;99.90
7576;DHT22;3829;50.798;4.358;2023-04-29T08:36:51;12.50;99.90
7576;DHT22;3829;50.798;4.358;2023-04-29T08:39:16;12.60;99.90
7576;DHT22;3829;50.798;4.358;2023-04-29T08:41:42;12.80;99.90
7576;DHT22;3829;50.798;4.358;2023-04-29T08:44:13;13.00;99.90
7576;DHT22;3829;50.798;4.358;2023-04-29T08:46:39;13.00;99.90
7576;DHT22;3829;50.798;4.358;2023-04-29T08:49:06;13.00;99.90
7576;DHT22;3829;50.798;4.358;2023-04-29T08:51:32;12.90;99.90
7576;DHT22;3829;50.798;4.358;2023-04-29T08:53:59;13.10;99.90
7576;DHT22;3829;50.798;4.358;2023-04-29T08:56:25;12.90;99.90
7576;DHT22;3829;50.798;4.358;2023-04-29T08:58:52;12.90;99.90
7576;DHT22;3829;50.798;4.358;2023-04-29T09:01:20;12.90;99.90
7576;DHT22;3829;50.798;4.358;2023-04-29T09:04:01;13.10;99.90
7576;DHT22;3829;50.798;4.358;2023-04-29T09:06:29;13.20;99.90
7576;DHT22;3829;50.798;4.358;2023-04-29T09:08:58;13.20;99.90
7576;DHT22;3829;50.798;4.358;2023-04-29T09:11:26;13.20;99.90
7576;DHT22;3829;50.798;4.358;2023-04-29T09:13:59;13.20;99.90
7576;DHT22;3829;50.798;4.358;2023-04-29T09:16:26;13.30;99.90
7576;DHT22;3829;50.798;4.358;2023-04-29T09:18:52;13.20;99.90
7576;DHT22;3829;50.798;4.358;2023-04-29T09:21:21;13.20;99.90
7576;DHT22;3829;50.798;4.358;2023-04-29T09:23:48;12.90;99.90
7576;DHT22;3829;50.798;4.358;2023-04-29T09:26:14;12.70;99.90
7576;DHT22;3829;50.798;4.358;2023-04-29T09:28:40;12.90;99.90
7576;DHT22;3829;50.798;4.358;2023-04-29T09:31:10;12.90;99.90
7576;DHT22;3829;50.798;4.358;2023-04-29T09:33:49;12.80;99.90
7576;DHT22;3829;50.798;4.358;2023-04-29T09:36:39;12.90;99.90
7576;DHT22;3829;50.798;4.358;2023-04-29T09:39:07;13.00;99.90
7576;DHT22;3829;50.798;4.358;2023-04-29T09:44:13;13.30;99.90
7576;DHT22;3829;50.798;4.358;2023-04-29T09:46:39;13.70;99.90
7576;DHT22;3829;50.798;4.358;2023-04-29T09:49:22;13.90;99.90
7576;DHT22;3829;50.798;4.358;2023-04-29T09:51:58;14.10;99.90
7576;DHT22;3829;50.798;4.358;2023-04-29T09:54:26;14.40;99.90
7576;DHT22;3829;50.798;4.358;2023-04-29T09:56:53;14.70;99.90
7576;DHT22;3829;50.798;4.358;2023-04-29T09:59:19;15.00;99.90
7576;DHT22;3829;50.798;4.358;2023-04-29T10:01:47;15.10;99.90
7576;DHT22;3829;50.798;4.358;2023-04-29T10:04:15;15.00;99.90
7576;DHT22;3829;50.798;4.358;2023-04-29T10:06:41;15.20;99.90
7576;DHT22;3829;50.798;4.358;2023-04-29T10:09:12;14.90;99.90
7576;DHT22;3829;50.798;4.358;2023-04-29T10:11:41;14.90;99.90
7576;DHT22;3829;50.798;4.358;2023-04-29T10:14:10;14.90;99.90
7576;DHT22;3829;50.798;4.358;2023-04-29T10:16:41;14.50;99.90
7576;DHT22;3829;50.798;4.358;2023-04-29T10:19:11;14.70;99.90
7576;DHT22;3829;50.798;4.358;2023-04-29T10:21:37;14.80;99.90
7576;DHT22;3829;50.798;4.358;2023-04-29T10:24:03;14.90;99.90
7576;DHT22;3829;50.798;4.358;2023-04-29T10:26:29;15.10;99.90
7576;DHT22;3829;50.798;4.358;2023-04-29T10:28:57;15.90;99.90
7576;DHT22;3829;50.798;4.358;2023-04-29T10:31:26;15.80;99.90
7576;DHT22;3829;50.798;4.358;2023-04-29T10:33:55;16.50;99.90
7576;DHT22;3829;50.798;4.358;2023-04-29T10:36:22;16.90;99.90
7576;DHT22;3829;50.798;4.358;2023-04-29T10:38:50;16.90;99.90
7576;DHT22;3829;50.798;4.358;2023-04-29T10:41:24;16.60;99.90
7576;DHT22;3829;50.798;4.358;2023-04-29T10:43:51;17.20;99.90
7576;DHT22;3829;50.798;4.358;2023-04-29T10:46:19;17.10;99.90
7576;DHT22;3829;50.798;4.358;2023-04-29T10:48:45;17.10;99.90
7576;DHT22;3829;50.798;4.358;2023-04-29T10:51:11;16.50;99.90
7576;DHT22;3829;50.798;4.358;2023-04-29T10:56:34;16.10;99.90
7576;DHT22;3829;50.798;4.358;2023-04-29T10:59:01;15.90;99.90
7576;DHT22;3829;50.798;4.358;2023-04-29T11:01:40;15.30;99.90
7576;DHT22;3829;50.798;4.358;2023-04-29T11:04:06;15.30;99.90
7576;DHT22;3829;50.798;4.358;2023-04-29T11:06:39;15.30;99.90
7576;DHT22;3829;50.798;4.358;2023-04-29T11:09:12;15.40;99.90
7576;DHT22;3829;50.798;4.358;2023-04-29T11:11:43;15.50;99.90
7576;DHT22;3829;50.798;4.358;2023-04-29T11:14:10;15.90;99.90
7576;DHT22;3829;50.798;4.358;2023-04-29T11:16:37;16.30;99.90
7576;DHT22;3829;50.798;4.358;2023-04-29T11:19:07;16.70;99.90
7576;DHT22;3829;50.798;4.358;2023-04-29T11:21:35;16.70;99.90
7576;DHT22;3829;50.798;4.358;2023-04-29T11:24:02;16.90;99.90
7576;DHT22;3829;50.798;4.358;2023-04-29T11:26:34;17.10;99.90
7576;DHT22;3829;50.798;4.358;2023-04-29T11:29:00;17.30;99.90
7576;DHT22;3829;50.798;4.358;2023-04-29T11:31:30;16.60;99.90
7576;DHT22;3829;50.798;4.358;2023-04-29T11:33:57;16.00;99.90
7576;DHT22;3829;50.798;4.358;2023-04-29T11:36:23;15.90;99.90
7576;DHT22;3829;50.798;4.358;2023-04-29T11:38:49;16.00;99.90
7576;DHT22;3829;50.798;4.358;2023-04-29T11:41:15;16.50;99.90
7576;DHT22;3829;50.798;4.358;2023-04-29T11:43:40;16.30;99.90
7576;DHT22;3829;50.798;4.358;2023-04-29T11:46:12;16.60;99.90
7576;DHT22;3829;50.798;4.358;2023-04-29T11:48:45;17.10;99.90
7576;DHT22;3829;50.798;4.358;2023-04-29T11:51:12;17.20;99.90
7576;DHT22;3829;50.798;4.358;2023-04-29T11:53:38;17.00;99.90
7576;DHT22;3829;50.798;4.358;2023-04-29T11:56:04;17.00;99.90
7576;DHT22;3829;50.798;4.358;2023-04-29T11:58:30;17.30;99.90
7576;DHT22;3829;50.798;4.358;2023-04-29T12:00:57;17.20;99.90
7576;DHT22;3829;50.798;4.358;2023-04-29T12:03:23;16.30;99.90
7576;DHT22;3829;50.798;4.358;2023-04-29T12:05:52;16.30;99.90
7576;DHT22;3829;50.798;4.358;2023-04-29T12:08:21;16.50;99.90
7576;DHT22;3829;50.798;4.358;2023-04-29T12:10:47;17.00;99.90
7576;DHT22;3829;50.798;4.358;2023-04-29T12:13:14;17.00;99.90
7576;DHT22;3829;50.798;4.358;2023-04-29T12:15:40;16.90;99.90
7576;DHT22;3829;50.798;4.358;2023-04-29T12:18:07;16.70;99.90
7576;DHT22;3829;50.798;4.358;2023-04-29T12:20:33;16.60;99.90
7576;DHT22;3829;50.798;4.358;2023-04-29T12:23:12;16.30;99.90
7576;DHT22;3829;50.798;4.358;2023-04-29T12:25:38;16.30;99.90
7576;DHT22;3829;50.798;4.358;2023-04-29T12:28:13;16.40;99.90
7576;DHT22;3829;50.798;4.358;2023-04-29T12:30:39;16.20;99.90
7576;DHT22;3829;50.798;4.358;2023-04-29T12:33:07;16.20;99.90
7576;DHT22;3829;50.798;4.358;2023-04-29T12:35:34;16.30;99.90
7576;DHT22;3829;50.798;4.358;2023-04-29T12:37:59;16.60;99.90
7576;DHT22;3829;50.798;4.358;2023-04-29T12:40:25;16.30;99.90
7576;DHT22;3829;50.798;4.358;2023-04-29T12:42:52;16.70;99.90
7576;DHT22;3829;50.798;4.358;2023-04-29T12:45:27;16.70;99.90
7576;DHT22;3829;50.798;4.358;2023-04-29T12:47:55;16.70;99.90
7576;DHT22;3829;50.798;4.358;2023-04-29T12:50:31;16.70;99.90
7576;DHT22;3829;50.798;4.358;2023-04-29T12:52:57;16.30;99.90
7576;DHT22;3829;50.798;4.358;2023-04-29T12:55:23;16.30;99.90
7576;DHT22;3829;50.798;4.358;2023-04-29T12:57:49;16.50;99.90
7576;DHT22;3829;50.798;4.358;2023-04-29T13:00:15;16.80;99.90
7576;DHT22;3829;50.798;4.358;2023-04-29T13:02:40;17.00;99.90
7576;DHT22;3829;50.798;4.358;2023-04-29T13:05:06;17.20;99.90
7576;DHT22;3829;50.798;4.358;2023-04-29T13:07:32;17.40;99.90
7576;DHT22;3829;50.798;4.358;2023-04-29T13:09:57;17.60;99.90
7576;DHT22;3829;50.798;4.358;2023-04-29T13:12:23;17.50;99.90
7576;DHT22;3829;50.798;4.358;2023-04-29T13:14:49;17.50;99.90
7576;DHT22;3829;50.798;4.358;2023-04-29T13:17:15;17.30;99.90
7576;DHT22;3829;50.798;4.358;2023-04-29T13:19:41;16.90;99.90
7576;DHT22;3829;50.798;4.358;2023-04-29T13:22:08;16.90;99.90
7576;DHT22;3829;50.798;4.358;2023-04-29T13:24:34;16.90;99.90
7576;DHT22;3829;50.798;4.358;2023-04-29T13:27:01;16.80;99.90
7576;DHT22;3829;50.798;4.358;2023-04-29T13:29:27;16.80;99.90
7576;DHT22;3829;50.798;4.358;2023-04-29T13:31:53;16.80;99.90
7576;DHT22;3829;50.798;4.358;2023-04-29T13:34:18;17.20;99.90
7576;DHT22;3829;50.798;4.358;2023-04-29T13:36:44;17.60;99.90
7576;DHT22;3829;50.798;4.358;2023-04-29T13:39:10;17.60;99.90
7576;DHT22;3829;50.798;4.358;2023-04-29T13:41:36;17.90;99.90
7576;DHT22;3829;50.798;4.358;2023-04-29T13:44:02;17.80;99.90
7576;DHT22;3829;50.798;4.358;2023-04-29T13:46:27;17.90;99.90
7576;DHT22;3829;50.798;4.358;2023-04-29T13:48:53;18.00;99.90
7576;DHT22;3829;50.798;4.358;2023-04-29T13:51:19;17.80;99.90
7576;DHT22;3829;50.798;4.358;2023-04-29T13:53:44;17.70;99.90
7576;DHT22;3829;50.798;4.358;2023-04-29T13:56:10;17.60;99.90
7576;DHT22;3829;50.798;4.358;2023-04-29T13:58:36;17.50;99.90
7576;DHT22;3829;50.798;4.358;2023-04-29T14:01:02;17.70;99.90
7576;DHT22;3829;50.798;4.358;2023-04-29T14:03:27;17.90;99.90
7576;DHT22;3829;50.798;4.358;2023-04-29T14:05:53;17.70;99.90
7576;DHT22;3829;50.798;4.358;2023-04-29T14:08:19;17.40;99.90
7576;DHT22;3829;50.798;4.358;2023-04-29T14:10:44;17.10;99.90
7576;DHT22;3829;50.798;4.358;2023-04-29T14:13:11;17.00;99.90
7576;DHT22;3829;50.798;4.358;2023-04-29T14:15:37;16.60;99.90
7576;DHT22;3829;50.798;4.358;2023-04-29T14:18:02;16.70;99.90
7576;DHT22;3829;50.798;4.358;2023-04-29T14:20:28;16.80;99.90
7576;DHT22;3829;50.798;4.358;2023-04-29T14:22:53;17.00;99.90
7576;DHT22;3829;50.798;4.358;2023-04-29T14:25:19;17.40;99.90
7576;DHT22;3829;50.798;4.358;2023-04-29T14:27:45;17.40;99.90
7576;DHT22;3829;50.798;4.358;2023-04-29T14:30:13;17.20;99.90
7576;DHT22;3829;50.798;4.358;2023-04-29T14:32:38;17.40;99.90
7576;DHT22;3829;50.798;4.358;2023-04-29T14:35:05;17.60;99.90
7576;DHT22;3829;50.798;4.358;2023-04-29T14:37:30;17.90;99.90
7576;DHT22;3829;50.798;4.358;2023-04-29T14:39:56;17.90;99.90
7576;DHT22;3829;50.798;4.358;2023-04-29T14:42:21;18.20;99.90
7576;DHT22;3829;50.798;4.358;2023-04-29T14:44:47;18.50;99.90
7576;DHT22;3829;50.798;4.358;2023-04-29T14:47:13;18.30;99.90
7576;DHT22;3829;50.798;4.358;2023-04-29T14:49:38;17.90;99.90
7576;DHT22;3829;50.798;4.358;2023-04-29T14:52:06;17.90;99.90
7576;DHT22;3829;50.798;4.358;2023-04-29T14:54:32;17.80;99.90
7576;DHT22;3829;50.798;4.358;2023-04-29T14:56:57;17.60;99.90
7576;DHT22;3829;50.798;4.358;2023-04-29T14:59:23;17.60;99.90
7576;DHT22;3829;50.798;4.358;2023-04-29T15:01:49;17.60;99.90
7576;DHT22;3829;50.798;4.358;2023-04-29T15:04:14;17.40;99.90
7576;DHT22;3829;50.798;4.358;2023-04-29T15:06:40;17.50;99.90
7576;DHT22;3829;50.798;4.358;2023-04-29T15:09:06;17.40;99.90
7576;DHT22;3829;50.798;4.358;2023-04-29T15:11:32;17.40;99.90
7576;DHT22;3829;50.798;4.358;2023-04-29T15:13:57;17.70;99.90
7576;DHT22;3829;50.798;4.358;2023-04-29T15:16:23;17.60;99.90
7576;DHT22;3829;50.798;4.358;2023-04-29T15:18:49;17.70;99.90
7576;DHT22;3829;50.798;4.358;2023-04-29T15:21:15;18.20;99.90
7576;DHT22;3829;50.798;4.358;2023-04-29T15:23:41;18.40;99.90
7576;DHT22;3829;50.798;4.358;2023-04-29T15:26:06;18.80;99.90
7576;DHT22;3829;50.798;4.358;2023-04-29T15:28:32;19.10;99.90
7576;DHT22;3829;50.798;4.358;2023-04-29T15:30:58;19.10;99.90
7576;DHT22;3829;50.798;4.358;2023-04-29T15:33:26;18.50;99.90
7576;DHT22;3829;50.798;4.358;2023-04-29T15:35:51;17.90;99.90
7576;DHT22;3829;50.798;4.358;2023-04-29T15:38:17;17.50;99.90
7576;DHT22;3829;50.798;4.358;2023-04-29T15:40:42;17.30;99.90
7576;DHT22;3829;50.798;4.358;2023-04-29T15:43:08;17.20;99.90
7576;DHT22;3829;50.798;4.358;2023-04-29T15:45:34;16.90;99.90
7576;DHT22;3829;50.798;4.358;2023-04-29T15:47:59;16.90;99.90
7576;DHT22;3829;50.798;4.358;2023-04-29T15:50:25;17.10;99.90
7576;DHT22;3829;50.798;4.358;2023-04-29T15:52:51;17.10;99.90
7576;DHT22;3829;50.798;4.358;2023-04-29T15:55:20;17.10;99.90
7576;DHT22;3829;50.798;4.358;2023-04-29T15:57:45;17.10;99.90
7576;DHT22;3829;50.798;4.358;2023-04-29T16:00:11;17.30;99.90
7576;DHT22;3829;50.798;4.358;2023-04-29T16:02:37;17.30;99.90
7576;DHT22;3829;50.798;4.358;2023-04-29T16:05:03;17.10;99.90
7576;DHT22;3829;50.798;4.358;2023-04-29T16:07:29;17.10;99.90
7576;DHT22;3829;50.798;4.358;2023-04-29T16:09:55;16.90;99.90